Time;durP1;ratioP1;P1;durP2;ratioP2;P2;SDS_P1;SDS_P2;PMS_P1;PMS_P2;Temp;Humidity;BMP_temperature;BMP_pressure;BME280_temperature;BME280_humidity;BME280_pressure;Samples;Min_cycle;Max_cycle;Signal;HPM_P1;HPM_P2
2022/02/18 00:01:16;;;;;;;7.72;1.63;;;22.00;17.50;;;;;;5074475;28;20548;-61
2022/02/18 00:03:45;;;;;;;12.23;1.83;;;22.10;17.60;;;;;;5092134;28;20068;-63
2022/02/18 00:06:11;;;;;;;8.68;1.38;;;22.10;17.40;;;;;;5091164;28;20079;-63
2022/02/18 00:08:38;;;;;;;15.88;1.20;;;22.00;17.60;;;;;;5092294;28;20085;-63
2022/02/18 00:11:07;;;;;;;6.60;1.17;;;22.00;17.10;;;;;;5090354;28;20080;-63
2022/02/18 00:13:35;;;;;;;13.82;1.23;;;22.00;17.40;;;;;;5092887;28;20068;-62
2022/02/18 00:16:01;;;;;;;7.70;1.20;;;22.00;17.20;;;;;;5091137;28;20126;-62
2022/02/18 00:18:28;;;;;;;10.13;1.40;;;21.90;17.30;;;;;;5105850;28;20089;-63
2022/02/18 00:20:54;;;;;;;15.23;1.45;;;22.00;17.40;;;;;;5090895;28;20553;-65
2022/02/18 00:23:20;;;;;;;11.38;1.30;;;21.80;17.60;;;;;;5089648;28;20076;-63
2022/02/18 00:25:47;;;;;;;15.30;1.23;;;21.70;17.60;;;;;;5089663;28;20099;-62
2022/02/18 00:28:13;;;;;;;20.95;1.90;;;21.70;17.60;;;;;;5095575;28;20149;-62
2022/02/18 00:30:40;;;;;;;5.55;1.15;;;21.60;17.80;;;;;;5093904;28;20100;-62
2022/02/18 00:33:07;;;;;;;8.77;1.27;;;21.60;18.10;;;;;;5090026;28;20495;-63
2022/02/18 00:35:33;;;;;;;13.45;1.50;;;21.50;18.20;;;;;;5090591;28;20504;-62
2022/02/18 00:38:00;;;;;;;10.18;1.25;;;21.50;18.40;;;;;;5089715;28;20072;-62
2022/02/18 00:40:27;;;;;;;8.18;1.95;;;21.40;18.60;;;;;;5090587;28;20122;-64
2022/02/18 00:42:54;;;;;;;6.38;1.10;;;21.30;19.10;;;;;;5091353;28;20521;-63
2022/02/18 00:45:21;;;;;;;9.85;1.80;;;21.20;19.20;;;;;;5090099;28;20081;-62
2022/02/18 00:47:49;;;;;;;8.80;1.77;;;21.10;19.30;;;;;;5087135;28;20088;-63
2022/02/18 00:50:18;;;;;;;16.83;1.80;;;21.10;19.20;;;;;;5090609;28;20065;-63
2022/02/18 00:52:45;;;;;;;8.55;1.40;;;21.20;19.30;;;;;;5089428;28;20089;-60
2022/02/18 00:55:12;;;;;;;10.77;1.58;;;21.10;18.80;;;;;;5089612;28;20068;-62
2022/02/18 00:57:39;;;;;;;17.98;1.83;;;21.10;18.60;;;;;;5090248;28;20076;-62
2022/02/18 01:00:08;;;;;;;9.68;1.30;;;21.00;19.20;;;;;;5089819;28;20467;-63
2022/02/18 01:02:35;;;;;;;14.80;1.25;;;20.80;19.60;;;;;;5090610;28;20671;-62
2022/02/18 01:05:03;;;;;;;12.30;1.48;;;20.70;19.80;;;;;;5089935;28;20083;-63
2022/02/18 01:07:29;;;;;;;11.48;1.60;;;20.60;19.80;;;;;;5089939;28;20162;-64
2022/02/18 01:09:55;;;;;;;17.42;2.00;;;20.50;19.80;;;;;;5091082;28;20175;-63
2022/02/18 01:12:22;;;;;;;5.15;1.50;;;20.40;19.80;;;;;;5092120;28;20073;-62
2022/02/18 01:14:50;;;;;;;10.93;1.67;;;20.40;19.70;;;;;;5089659;28;20221;-64
2022/02/18 01:17:16;;;;;;;13.15;1.90;;;20.30;19.70;;;;;;5089492;28;20072;-64
2022/02/18 01:19:43;;;;;;;9.70;2.35;;;20.20;19.80;;;;;;5072096;28;20561;-63
2022/02/18 01:22:10;;;;;;;13.43;2.60;;;20.10;19.90;;;;;;5089086;28;20092;-64
2022/02/18 01:24:37;;;;;;;;;;;20.10;20.00;;;;;;5090390;28;20069;-63
2022/02/18 01:27:04;;;;;;;11.45;2.08;;;19.30;23.30;;;;;;5089416;28;20020;-62
2022/02/18 01:29:30;;;;;;;15.00;3.95;;;19.80;20.00;;;;;;5090252;28;20624;-63
2022/02/18 01:31:56;;;;;;;;;;;19.70;20.10;;;;;;5089194;28;20545;-63
2022/02/18 01:34:22;;;;;;;14.40;2.80;;;19.70;20.30;;;;;;5089885;28;20010;-64
2022/02/18 01:36:48;;;;;;;;;;;19.70;20.30;;;;;;5090125;28;20111;-63
2022/02/18 01:39:18;;;;;;;12.20;2.75;;;19.60;20.50;;;;;;5087862;28;20426;-64
2022/02/18 01:41:44;;;;;;;20.65;2.83;;;19.50;20.60;;;;;;5087761;28;20106;-65
2022/02/18 01:44:11;;;;;;;;;;;19.50;20.70;;;;;;5089176;28;20449;-63
2022/02/18 01:46:37;;;;;;;20.38;2.88;;;19.40;20.70;;;;;;5091451;28;19956;-62
2022/02/18 01:49:03;;;;;;;;;;;19.40;20.80;;;;;;5089836;28;20237;-63
2022/02/18 01:51:30;;;;;;;12.73;2.35;;;19.30;21.00;;;;;;5090332;28;20014;-63
2022/02/18 01:53:58;;;;;;;12.25;2.10;;;19.20;21.70;;;;;;5089016;28;20064;-64
2022/02/18 01:56:24;;;;;;;16.33;2.53;;;19.20;21.30;;;;;;5088969;28;20068;-63
2022/02/18 01:58:51;;;;;;;14.98;2.50;;;19.10;21.20;;;;;;5089086;28;20167;-62
2022/02/18 02:01:18;;;;;;;32.33;3.20;;;19.00;21.70;;;;;;5089012;28;20422;-62
2022/02/18 02:03:44;;;;;;;17.30;3.83;;;19.00;21.50;;;;;;5089957;28;20524;-63
2022/02/18 02:06:13;;;;;;;17.00;3.83;;;18.90;21.60;;;;;;5072325;28;20077;-64
2022/02/18 02:08:39;;;;;;;24.38;3.78;;;18.80;21.80;;;;;;5090016;28;20088;-63
2022/02/18 02:11:06;;;;;;;19.15;3.90;;;18.80;21.80;;;;;;5089713;28;20096;-62
2022/02/18 02:13:36;;;;;;;24.23;6.28;;;18.70;22.20;;;;;;5088926;28;20065;-66
2022/02/18 02:16:03;;;;;;;32.63;5.10;;;18.60;21.70;;;;;;5071307;28;20087;-64
2022/02/18 02:18:29;;;;;;;29.00;5.28;;;18.60;21.90;;;;;;5088748;28;20497;-64
2022/02/18 02:20:56;;;;;;;28.20;6.07;;;18.50;21.60;;;;;;5088945;28;20126;-63
2022/02/18 02:23:23;;;;;;;25.52;5.82;;;18.50;21.80;;;;;;5087716;28;20092;-66
2022/02/18 02:25:50;;;;;;;34.72;7.10;;;18.40;22.40;;;;;;5088578;28;20073;-64
2022/02/18 02:28:16;;;;;;;43.30;7.90;;;18.40;22.60;;;;;;5089469;28;20100;-66
2022/02/18 02:30:43;;;;;;;34.13;8.80;;;18.30;23.10;;;;;;5087753;28;20072;-64
2022/02/18 02:33:09;;;;;;;32.80;7.35;;;18.20;23.60;;;;;;5088253;28;20109;-63
2022/02/18 02:35:36;;;;;;;37.60;7.32;;;18.10;23.60;;;;;;5088018;28;20593;-62
2022/02/18 02:38:03;;;;;;;44.30;7.65;;;18.10;23.70;;;;;;5072017;28;20180;-65
2022/02/18 02:40:30;;;;;;;41.30;6.68;;;17.90;23.90;;;;;;5088585;28;20538;-66
2022/02/18 02:42:56;;;;;;;;;;;17.90;24.10;;;;;;5089386;28;20088;-65
2022/02/18 02:45:23;;;;;;;59.42;6.97;;;17.80;24.20;;;;;;5088309;28;19965;-65
2022/02/18 02:47:49;;;;;;;51.83;7.32;;;17.70;24.20;;;;;;5087722;28;20095;-63
2022/02/18 02:50:19;;;;;;;52.42;8.48;;;17.70;24.00;;;;;;5084112;28;20092;-62
2022/02/18 02:52:45;;;;;;;56.05;9.73;;;17.60;23.70;;;;;;5086331;28;20119;-63
2022/02/18 02:55:13;;;;;;;76.13;10.45;;;17.60;23.90;;;;;;5087934;28;20101;-66
2022/02/18 02:57:43;;;;;;;64.38;10.02;;;17.60;24.60;;;;;;5069927;28;20089;-64
2022/02/18 03:00:11;;;;;;;49.58;9.77;;;17.50;25.40;;;;;;5086003;28;20069;-65
2022/02/18 03:02:38;;;;;;;45.17;9.82;;;17.40;24.90;;;;;;5087808;28;20073;-65
2022/02/18 03:05:06;;;;;;;74.40;10.43;;;17.40;24.80;;;;;;5087762;28;20104;-66
2022/02/18 03:07:34;;;;;;;56.10;9.73;;;17.30;24.70;;;;;;5087194;28;20744;-67
2022/02/18 03:10:00;;;;;;;54.22;9.45;;;17.30;24.90;;;;;;5087314;28;20122;-64
2022/02/18 03:12:27;;;;;;;63.97;10.48;;;17.10;25.10;;;;;;5088615;28;20076;-64
2022/02/18 03:14:53;;;;;;;67.25;10.32;;;17.10;25.40;;;;;;5091818;28;20151;-66
2022/02/18 03:17:20;;;;;;;55.70;9.43;;;17.00;26.00;;;;;;5077319;28;20437;-65
2022/02/18 03:19:46;;;;;;;63.30;9.25;;;16.90;25.80;;;;;;5091603;28;20093;-63
2022/02/18 03:22:12;;;;;;;54.13;8.10;;;16.80;25.80;;;;;;5074105;28;20076;-62
2022/02/18 03:24:39;;;;;;;67.15;11.45;;;16.70;25.90;;;;;;5091215;28;20449;-65
2022/02/18 03:27:05;;;;;;;52.70;9.63;;;16.70;26.10;;;;;;5091252;28;20076;-63
2022/02/18 03:29:31;;;;;;;;;;;16.60;27.50;;;;;;5090879;28;20073;-64
2022/02/18 03:31:58;;;;;;;66.70;10.43;;;16.50;26.30;;;;;;5092505;28;19956;-62
2022/02/18 03:34:24;;;;;;;;;;;16.50;26.60;;;;;;5091793;28;20945;-67
2022/02/18 03:36:50;;;;;;;71.65;10.50;;;16.40;26.60;;;;;;5092992;28;20045;-65
2022/02/18 03:39:16;;;;;;;;;;;16.40;26.60;;;;;;5091551;28;20077;-66
2022/02/18 03:41:43;;;;;;;58.65;11.00;;;16.30;26.80;;;;;;5092021;28;19956;-64
2022/02/18 03:44:09;;;;;;;;;;;16.20;26.70;;;;;;5092022;28;20434;-64
2022/02/18 03:46:36;;;;;;;78.77;11.90;;;16.20;27.20;;;;;;5090309;28;19957;-65
2022/02/18 03:49:04;;;;;;;86.97;11.00;;;16.10;27.70;;;;;;5092400;28;20307;-65
2022/02/18 03:51:31;;;;;;;79.93;10.43;;;16.10;28.20;;;;;;5089986;28;20130;-64
2022/02/18 03:53:57;;;;;;;96.45;11.35;;;16.00;28.30;;;;;;5073617;28;20104;-66
2022/02/18 03:56:23;;;;;;;;;;;16.00;28.60;;;;;;5081191;28;20084;-62
2022/02/18 03:58:50;;;;;;;69.25;10.45;;;15.90;28.00;;;;;;5090838;28;19963;-64
2022/02/18 04:01:16;;;;;;;;;;;15.80;27.90;;;;;;5091096;28;20077;-64
2022/02/18 04:03:43;;;;;;;80.53;10.40;;;15.70;28.10;;;;;;5090993;28;20493;-64
2022/02/18 04:06:11;;;;;;;71.45;11.07;;;15.70;28.60;;;;;;5091184;28;20076;-64
2022/02/18 04:08:38;;;;;;;76.70;10.88;;;15.60;28.40;;;;;;5090556;28;20081;-64
2022/02/18 04:11:05;;;;;;;93.88;11.38;;;15.60;28.50;;;;;;5073795;28;20080;-65
2022/02/18 04:13:31;;;;;;;73.47;9.82;;;15.50;29.40;;;;;;5086218;28;20094;-64
2022/02/18 04:15:57;;;;;;;;;;;15.50;29.40;;;;;;5091010;28;20122;-64
2022/02/18 04:18:23;;;;;;;92.55;12.13;;;15.50;29.40;;;;;;5090671;28;20016;-63
2022/02/18 04:20:50;;;;;;;83.13;12.00;;;15.40;29.10;;;;;;5090967;28;20153;-64
2022/02/18 04:23:16;;;;;;;;;;;15.40;29.40;;;;;;5090708;28;20162;-64
2022/02/18 04:25:42;;;;;;;88.35;12.30;;;15.30;29.80;;;;;;5089473;28;20059;-65
2022/02/18 04:28:08;;;;;;;;;;;15.20;29.70;;;;;;5090353;28;20135;-63
2022/02/18 04:30:35;;;;;;;83.43;12.32;;;15.20;30.00;;;;;;5090869;28;20441;-64
2022/02/18 04:33:01;;;;;;;85.30;13.23;;;15.20;30.00;;;;;;5090589;28;20107;-63
2022/02/18 04:35:27;;;;;;;;;;;15.20;30.00;;;;;;5090677;28;20081;-66
2022/02/18 04:37:54;;;;;;;115.07;16.23;;;15.10;30.80;;;;;;5090435;28;19960;-64
2022/02/18 04:40:20;;;;;;;;;;;15.20;30.80;;;;;;5090480;28;20096;-64
2022/02/18 04:42:47;;;;;;;89.97;13.48;;;15.10;30.60;;;;;;5090954;28;19957;-65
2022/02/18 04:45:14;;;;;;;90.63;14.32;;;15.00;30.50;;;;;;5090110;28;20175;-64
2022/02/18 04:47:41;;;;;;;98.15;14.73;;;14.90;30.70;;;;;;5089059;28;20120;-64
2022/02/18 04:50:08;;;;;;;107.32;14.77;;;14.90;30.90;;;;;;5089883;28;20080;-65
2022/02/18 04:52:34;;;;;;;108.63;16.23;;;14.80;31.10;;;;;;5090617;28;20080;-65
2022/02/18 04:55:01;;;;;;;;;;;14.80;32.00;;;;;;5073392;28;20088;-65
2022/02/18 04:57:28;;;;;;;86.15;14.40;;;14.80;33.00;;;;;;5089044;28;20005;-64
2022/02/18 04:59:55;;;;;;;81.13;15.00;;;14.70;32.00;;;;;;5087835;28;20084;-65
2022/02/18 05:02:21;;;;;;;91.13;15.05;;;14.70;31.60;;;;;;5091304;28;20072;-63
2022/02/18 05:04:48;;;;;;;98.43;15.30;;;14.60;31.60;;;;;;5089774;28;20202;-64
2022/02/18 05:07:14;;;;;;;93.65;16.75;;;14.50;31.70;;;;;;5090449;28;20507;-64
2022/02/18 05:09:40;;;;;;;97.50;16.77;;;14.50;32.30;;;;;;5089962;28;20198;-62
2022/02/18 05:12:07;;;;;;;;;;;14.50;33.30;;;;;;5089501;28;20526;-67
2022/02/18 05:14:33;;;;;;;78.97;14.68;;;14.50;33.70;;;;;;5089438;28;20004;-64
2022/02/18 05:16:59;;;;;;;105.35;16.33;;;14.40;33.00;;;;;;5088720;28;20068;-64
2022/02/18 05:19:25;;;;;;;;;;;14.40;33.20;;;;;;5055480;28;20569;-63
2022/02/18 05:21:52;;;;;;;106.82;18.15;;;14.40;33.90;;;;;;5088659;28;20338;-65
2022/02/18 05:24:18;;;;;;;;;;;;;;;;;;5072719;28;20095;-63
2022/02/18 05:26:44;;;;;;;102.13;16.55;;;14.30;33.00;;;;;;5089958;28;20047;-67
2022/02/18 05:29:11;;;;;;;86.85;17.17;;;14.30;33.50;;;;;;5089155;28;20547;-64
2022/02/18 05:31:37;;;;;;;;;;;14.40;37.40;;;;;;5090062;28;20076;-62
2022/02/18 05:34:03;;;;;;;105.88;25.02;;;14.20;33.50;;;;;;5089167;28;20412;-62
2022/02/18 05:36:32;;;;;;;;;;;14.10;33.50;;;;;;5054022;28;20077;-66
2022/02/18 05:38:58;;;;;;;129.35;24.45;;;14.10;33.90;;;;;;5088553;28;20272;-62
2022/02/18 05:41:24;;;;;;;;;;;14.10;34.40;;;;;;5088967;28;20080;-63
2022/02/18 05:43:51;;;;;;;96.47;18.67;;;14.10;34.40;;;;;;5090022;28;19964;-65
2022/02/18 05:46:17;;;;;;;102.85;19.67;;;14.00;34.70;;;;;;5088730;28;20087;-63
2022/02/18 05:48:44;;;;;;;121.90;18.63;;;13.90;34.80;;;;;;5071808;28;20100;-65
2022/02/18 05:51:11;;;;;;;117.60;19.77;;;;;;;;;;5054725;28;20527;-63
2022/02/18 05:53:37;;;;;;;123.55;18.58;;;13.90;35.30;;;;;;5087381;28;20072;-63
2022/02/18 05:56:03;;;;;;;129.18;23.40;;;13.80;36.40;;;;;;5088698;28;20080;-64
2022/02/18 05:58:32;;;;;;;99.25;18.35;;;13.70;35.50;;;;;;5089297;28;20081;-64
2022/02/18 06:00:59;;;;;;;110.25;20.30;;;13.70;35.60;;;;;;5087956;28;20069;-63
2022/02/18 06:03:25;;;;;;;105.78;20.77;;;13.60;34.80;;;;;;5089142;28;20172;-66
2022/02/18 06:05:51;;;;;;;;;;;13.60;34.80;;;;;;5092821;28;20064;-63
2022/02/18 06:08:18;;;;;;;123.60;21.77;;;13.60;35.10;;;;;;5087176;28;19977;-64
2022/02/18 06:10:44;;;;;;;;;;;13.60;35.10;;;;;;5088842;28;20073;-64
2022/02/18 06:13:10;;;;;;;132.48;22.70;;;13.50;35.20;;;;;;5088572;28;19992;-66
2022/02/18 06:15:36;;;;;;;;;;;13.50;35.30;;;;;;5089011;28;20151;-66
2022/02/18 06:18:03;;;;;;;124.40;22.48;;;13.50;35.30;;;;;;5087294;28;19957;-67
2022/02/18 06:20:30;;;;;;;115.53;21.83;;;13.50;36.50;;;;;;5087122;28;20077;-64
2022/02/18 06:22:56;;;;;;;122.18;22.40;;;13.50;36.50;;;;;;5087289;28;20072;-65
2022/02/18 06:25:22;;;;;;;;;;;13.50;36.50;;;;;;5088904;28;20076;-63
2022/02/18 06:27:48;;;;;;;83.20;20.48;;;13.40;36.10;;;;;;5088407;28;19980;-65
2022/02/18 06:30:15;;;;;;;97.13;21.48;;;13.30;36.10;;;;;;5088362;28;20088;-67
2022/02/18 06:32:43;;;;;;;;;;;13.30;36.00;;;;;;5087652;28;20546;-65
2022/02/18 06:35:09;;;;;;;100.85;21.58;;;13.20;36.00;;;;;;5086338;28;19961;-62
2022/02/18 06:37:36;;;;;;;98.55;22.33;;;13.20;36.40;;;;;;5087510;28;20077;-65
2022/02/18 06:40:02;;;;;;;98.68;22.35;;;13.20;37.00;;;;;;5087194;28;20096;-65
2022/02/18 19:37:34;;;;;;;4.47;1.00;;;24.30;26.40;;;;;;5105067;27;20447;-67
